sensor_id;sensor_type;location;lat;lon;timestamp;P1;durP1;ratioP1;P2;durP2;ratioP2
16954;SDS011;8594;52.052;8.354;2023-03-11T00:01:05;5.27;;;3.50;;
16954;SDS011;8594;52.052;8.354;2023-03-11T00:03:32;4.67;;;3.40;;
16954;SDS011;8594;52.052;8.354;2023-03-11T00:05:59;4.57;;;3.27;;
16954;SDS011;8594;52.052;8.354;2023-03-11T00:08:28;6.33;;;3.80;;
16954;SDS011;8594;52.052;8.354;2023-03-11T00:10:56;5.70;;;3.10;;
16954;SDS011;8594;52.052;8.354;2023-03-11T00:13:27;8.03;;;3.53;;
16954;SDS011;8594;52.052;8.354;2023-03-11T00:15:55;7.27;;;3.70;;
16954;SDS011;8594;52.052;8.354;2023-03-11T00:18:24;4.43;;;3.33;;
16954;SDS011;8594;52.052;8.354;2023-03-11T00:20:54;6.33;;;3.63;;
16954;SDS011;8594;52.052;8.354;2023-03-11T00:23:23;6.47;;;3.73;;
16954;SDS011;8594;52.052;8.354;2023-03-11T00:25:51;6.67;;;3.90;;
16954;SDS011;8594;52.052;8.354;2023-03-11T00:28:18;8.90;;;3.90;;
16954;SDS011;8594;52.052;8.354;2023-03-11T00:30:47;8.27;;;4.23;;
16954;SDS011;8594;52.052;8.354;2023-03-11T00:33:14;8.30;;;4.17;;
16954;SDS011;8594;52.052;8.354;2023-03-11T00:35:42;15.33;;;4.80;;
16954;SDS011;8594;52.052;8.354;2023-03-11T00:38:11;6.83;;;4.00;;
16954;SDS011;8594;52.052;8.354;2023-03-11T00:40:42;9.57;;;4.30;;
16954;SDS011;8594;52.052;8.354;2023-03-11T00:43:10;6.20;;;4.10;;
16954;SDS011;8594;52.052;8.354;2023-03-11T00:45:37;9.17;;;5.17;;
16954;SDS011;8594;52.052;8.354;2023-03-11T00:48:06;6.67;;;4.40;;
16954;SDS011;8594;52.052;8.354;2023-03-11T00:50:34;8.97;;;4.73;;
16954;SDS011;8594;52.052;8.354;2023-03-11T00:53:02;9.93;;;4.97;;
16954;SDS011;8594;52.052;8.354;2023-03-11T00:55:32;5.00;;;4.10;;
16954;SDS011;8594;52.052;8.354;2023-03-11T00:58:00;9.27;;;5.30;;
16954;SDS011;8594;52.052;8.354;2023-03-11T01:00:30;10.83;;;4.90;;
16954;SDS011;8594;52.052;8.354;2023-03-11T01:02:57;10.90;;;4.87;;
16954;SDS011;8594;52.052;8.354;2023-03-11T01:05:27;10.00;;;5.17;;
16954;SDS011;8594;52.052;8.354;2023-03-11T01:07:56;7.37;;;4.60;;
16954;SDS011;8594;52.052;8.354;2023-03-11T01:10:24;8.67;;;5.23;;
16954;SDS011;8594;52.052;8.354;2023-03-11T01:12:51;8.40;;;4.80;;
16954;SDS011;8594;52.052;8.354;2023-03-11T01:15:19;11.40;;;5.63;;
16954;SDS011;8594;52.052;8.354;2023-03-11T01:17:48;11.00;;;5.03;;
16954;SDS011;8594;52.052;8.354;2023-03-11T01:20:15;9.73;;;4.93;;
16954;SDS011;8594;52.052;8.354;2023-03-11T01:22:44;8.13;;;4.57;;
16954;SDS011;8594;52.052;8.354;2023-03-11T01:25:11;13.77;;;5.37;;
16954;SDS011;8594;52.052;8.354;2023-03-11T01:27:41;9.17;;;4.90;;
16954;SDS011;8594;52.052;8.354;2023-03-11T01:30:09;7.80;;;4.73;;
16954;SDS011;8594;52.052;8.354;2023-03-11T01:32:41;7.43;;;4.80;;
16954;SDS011;8594;52.052;8.354;2023-03-11T01:35:09;10.47;;;4.80;;
16954;SDS011;8594;52.052;8.354;2023-03-11T01:37:38;9.37;;;4.73;;
16954;SDS011;8594;52.052;8.354;2023-03-11T01:40:07;11.77;;;4.53;;
16954;SDS011;8594;52.052;8.354;2023-03-11T01:42:41;6.73;;;4.40;;
16954;SDS011;8594;52.052;8.354;2023-03-11T01:48:00;7.47;;;4.50;;
16954;SDS011;8594;52.052;8.354;2023-03-11T01:50:29;12.10;;;4.70;;
16954;SDS011;8594;52.052;8.354;2023-03-11T01:53:01;9.40;;;5.10;;
16954;SDS011;8594;52.052;8.354;2023-03-11T01:55:31;10.07;;;4.53;;
16954;SDS011;8594;52.052;8.354;2023-03-11T01:57:59;9.17;;;4.63;;
16954;SDS011;8594;52.052;8.354;2023-03-11T02:00:30;8.17;;;4.80;;
16954;SDS011;8594;52.052;8.354;2023-03-11T02:02:58;8.17;;;4.60;;
16954;SDS011;8594;52.052;8.354;2023-03-11T02:05:32;7.57;;;4.90;;
16954;SDS011;8594;52.052;8.354;2023-03-11T02:08:00;12.37;;;4.90;;
16954;SDS011;8594;52.052;8.354;2023-03-11T02:10:28;10.27;;;4.60;;
16954;SDS011;8594;52.052;8.354;2023-03-11T02:12:57;13.10;;;4.80;;
16954;SDS011;8594;52.052;8.354;2023-03-11T02:15:25;9.37;;;5.03;;
16954;SDS011;8594;52.052;8.354;2023-03-11T02:17:52;9.47;;;4.50;;
16954;SDS011;8594;52.052;8.354;2023-03-11T02:20:23;9.53;;;4.47;;
16954;SDS011;8594;52.052;8.354;2023-03-11T02:23:01;9.90;;;4.93;;
16954;SDS011;8594;52.052;8.354;2023-03-11T02:25:32;10.23;;;4.40;;
16954;SDS011;8594;52.052;8.354;2023-03-11T02:28:09;6.50;;;4.43;;
16954;SDS011;8594;52.052;8.354;2023-03-11T02:30:40;10.27;;;4.80;;
16954;SDS011;8594;52.052;8.354;2023-03-11T02:33:09;8.17;;;4.20;;
16954;SDS011;8594;52.052;8.354;2023-03-11T02:35:38;12.07;;;4.67;;
16954;SDS011;8594;52.052;8.354;2023-03-11T02:38:05;8.07;;;4.23;;
16954;SDS011;8594;52.052;8.354;2023-03-11T02:43:23;12.93;;;3.90;;
16954;SDS011;8594;52.052;8.354;2023-03-11T02:46:00;6.77;;;3.63;;
16954;SDS011;8594;52.052;8.354;2023-03-11T02:48:31;7.63;;;3.47;;
16954;SDS011;8594;52.052;8.354;2023-03-11T02:50:59;13.60;;;4.20;;
16954;SDS011;8594;52.052;8.354;2023-03-11T02:53:29;7.17;;;3.83;;
16954;SDS011;8594;52.052;8.354;2023-03-11T02:56:02;11.10;;;4.20;;
16954;SDS011;8594;52.052;8.354;2023-03-11T02:58:31;13.83;;;4.47;;
16954;SDS011;8594;52.052;8.354;2023-03-11T03:00:58;7.40;;;3.70;;
16954;SDS011;8594;52.052;8.354;2023-03-11T03:03:25;5.70;;;3.67;;
16954;SDS011;8594;52.052;8.354;2023-03-11T03:05:51;11.43;;;5.07;;
16954;SDS011;8594;52.052;8.354;2023-03-11T03:08:18;7.00;;;5.00;;
16954;SDS011;8594;52.052;8.354;2023-03-11T03:10:45;11.10;;;4.30;;
16954;SDS011;8594;52.052;8.354;2023-03-11T03:13:12;7.87;;;4.57;;
16954;SDS011;8594;52.052;8.354;2023-03-11T03:15:40;7.97;;;4.50;;
16954;SDS011;8594;52.052;8.354;2023-03-11T03:18:07;9.43;;;3.87;;
16954;SDS011;8594;52.052;8.354;2023-03-11T03:20:34;8.63;;;3.90;;
16954;SDS011;8594;52.052;8.354;2023-03-11T03:23:01;12.70;;;4.53;;
16954;SDS011;8594;52.052;8.354;2023-03-11T03:25:28;8.23;;;4.47;;
16954;SDS011;8594;52.052;8.354;2023-03-11T03:27:55;8.03;;;4.40;;
16954;SDS011;8594;52.052;8.354;2023-03-11T03:30:22;7.70;;;4.23;;
16954;SDS011;8594;52.052;8.354;2023-03-11T03:32:50;9.43;;;4.57;;
16954;SDS011;8594;52.052;8.354;2023-03-11T03:35:18;11.37;;;4.63;;
16954;SDS011;8594;52.052;8.354;2023-03-11T03:37:46;13.10;;;4.70;;
16954;SDS011;8594;52.052;8.354;2023-03-11T03:40:13;8.40;;;4.53;;
16954;SDS011;8594;52.052;8.354;2023-03-11T03:42:40;11.93;;;4.90;;
16954;SDS011;8594;52.052;8.354;2023-03-11T03:45:07;10.07;;;4.60;;
16954;SDS011;8594;52.052;8.354;2023-03-11T03:47:35;13.20;;;5.10;;
16954;SDS011;8594;52.052;8.354;2023-03-11T03:50:04;10.00;;;4.57;;
16954;SDS011;8594;52.052;8.354;2023-03-11T03:52:33;9.03;;;4.60;;
16954;SDS011;8594;52.052;8.354;2023-03-11T03:55:01;10.43;;;4.73;;
16954;SDS011;8594;52.052;8.354;2023-03-11T03:57:29;8.53;;;5.17;;
16954;SDS011;8594;52.052;8.354;2023-03-11T03:59:56;8.13;;;4.97;;
16954;SDS011;8594;52.052;8.354;2023-03-11T04:02:23;13.63;;;5.57;;
16954;SDS011;8594;52.052;8.354;2023-03-11T04:04:50;11.83;;;4.80;;
16954;SDS011;8594;52.052;8.354;2023-03-11T04:07:18;6.97;;;4.30;;
16954;SDS011;8594;52.052;8.354;2023-03-11T04:09:45;13.67;;;4.73;;
16954;SDS011;8594;52.052;8.354;2023-03-11T04:12:12;11.60;;;4.73;;
16954;SDS011;8594;52.052;8.354;2023-03-11T04:14:41;7.73;;;4.53;;
16954;SDS011;8594;52.052;8.354;2023-03-11T04:17:09;8.70;;;4.23;;
16954;SDS011;8594;52.052;8.354;2023-03-11T04:19:36;11.80;;;4.50;;
16954;SDS011;8594;52.052;8.354;2023-03-11T04:22:03;11.33;;;4.13;;
16954;SDS011;8594;52.052;8.354;2023-03-11T04:24:32;9.27;;;4.00;;
16954;SDS011;8594;52.052;8.354;2023-03-11T04:26:58;8.50;;;4.00;;
16954;SDS011;8594;52.052;8.354;2023-03-11T04:29:25;10.63;;;3.50;;
16954;SDS011;8594;52.052;8.354;2023-03-11T04:31:52;8.53;;;3.47;;
16954;SDS011;8594;52.052;8.354;2023-03-11T04:34:19;7.97;;;3.00;;
16954;SDS011;8594;52.052;8.354;2023-03-11T04:36:46;9.93;;;3.07;;
16954;SDS011;8594;52.052;8.354;2023-03-11T04:39:13;10.17;;;3.83;;
16954;SDS011;8594;52.052;8.354;2023-03-11T04:41:42;4.57;;;2.80;;
16954;SDS011;8594;52.052;8.354;2023-03-11T04:44:08;6.57;;;3.10;;
16954;SDS011;8594;52.052;8.354;2023-03-11T04:46:35;8.33;;;3.00;;
16954;SDS011;8594;52.052;8.354;2023-03-11T04:49:02;5.83;;;2.77;;
16954;SDS011;8594;52.052;8.354;2023-03-11T04:51:29;10.10;;;3.30;;
16954;SDS011;8594;52.052;8.354;2023-03-11T04:53:56;5.17;;;2.73;;
16954;SDS011;8594;52.052;8.354;2023-03-11T04:56:23;6.77;;;2.80;;
16954;SDS011;8594;52.052;8.354;2023-03-11T04:58:51;9.47;;;2.83;;
16954;SDS011;8594;52.052;8.354;2023-03-11T05:01:18;7.17;;;2.83;;
16954;SDS011;8594;52.052;8.354;2023-03-11T05:03:44;8.37;;;2.90;;
16954;SDS011;8594;52.052;8.354;2023-03-11T05:06:11;13.63;;;3.00;;
16954;SDS011;8594;52.052;8.354;2023-03-11T05:08:40;11.20;;;2.80;;
16954;SDS011;8594;52.052;8.354;2023-03-11T05:11:06;6.83;;;2.90;;
16954;SDS011;8594;52.052;8.354;2023-03-11T05:13:33;6.43;;;2.60;;
16954;SDS011;8594;52.052;8.354;2023-03-11T05:16:02;5.93;;;2.97;;
16954;SDS011;8594;52.052;8.354;2023-03-11T05:18:29;7.87;;;2.77;;
16954;SDS011;8594;52.052;8.354;2023-03-11T05:20:56;10.50;;;2.70;;
16954;SDS011;8594;52.052;8.354;2023-03-11T05:23:23;10.50;;;2.87;;
16954;SDS011;8594;52.052;8.354;2023-03-11T05:25:50;10.97;;;2.87;;
16954;SDS011;8594;52.052;8.354;2023-03-11T05:28:16;5.17;;;2.50;;
16954;SDS011;8594;52.052;8.354;2023-03-11T05:30:43;8.77;;;2.87;;
16954;SDS011;8594;52.052;8.354;2023-03-11T05:33:11;5.80;;;2.73;;
16954;SDS011;8594;52.052;8.354;2023-03-11T05:35:38;13.47;;;5.27;;
16954;SDS011;8594;52.052;8.354;2023-03-11T05:38:06;12.40;;;3.00;;
16954;SDS011;8594;52.052;8.354;2023-03-11T05:40:33;10.27;;;3.10;;
16954;SDS011;8594;52.052;8.354;2023-03-11T05:43:00;5.47;;;2.53;;
16954;SDS011;8594;52.052;8.354;2023-03-11T05:45:27;16.80;;;3.00;;
16954;SDS011;8594;52.052;8.354;2023-03-11T05:47:54;4.63;;;2.23;;
16954;SDS011;8594;52.052;8.354;2023-03-11T05:50:22;4.43;;;2.57;;
16954;SDS011;8594;52.052;8.354;2023-03-11T05:52:49;6.30;;;2.47;;
16954;SDS011;8594;52.052;8.354;2023-03-11T05:55:18;8.00;;;2.37;;
16954;SDS011;8594;52.052;8.354;2023-03-11T05:57:45;12.17;;;2.83;;
16954;SDS011;8594;52.052;8.354;2023-03-11T06:00:12;6.13;;;2.47;;
16954;SDS011;8594;52.052;8.354;2023-03-11T06:02:40;7.47;;;2.80;;
16954;SDS011;8594;52.052;8.354;2023-03-11T06:05:07;7.77;;;2.63;;
16954;SDS011;8594;52.052;8.354;2023-03-11T06:07:36;5.33;;;2.73;;
16954;SDS011;8594;52.052;8.354;2023-03-11T06:10:03;9.60;;;2.43;;
16954;SDS011;8594;52.052;8.354;2023-03-11T06:12:32;10.57;;;3.00;;
16954;SDS011;8594;52.052;8.354;2023-03-11T06:14:59;10.30;;;2.20;;
16954;SDS011;8594;52.052;8.354;2023-03-11T06:17:26;7.47;;;3.20;;
16954;SDS011;8594;52.052;8.354;2023-03-11T06:19:53;6.97;;;2.50;;
16954;SDS011;8594;52.052;8.354;2023-03-11T06:22:20;5.83;;;2.30;;
16954;SDS011;8594;52.052;8.354;2023-03-11T06:24:48;6.60;;;2.70;;
16954;SDS011;8594;52.052;8.354;2023-03-11T06:27:15;9.27;;;2.93;;
16954;SDS011;8594;52.052;8.354;2023-03-11T06:29:42;12.83;;;2.70;;
16954;SDS011;8594;52.052;8.354;2023-03-11T06:32:08;8.07;;;2.77;;
16954;SDS011;8594;52.052;8.354;2023-03-11T06:34:35;8.13;;;2.70;;
16954;SDS011;8594;52.052;8.354;2023-03-11T06:37:02;8.27;;;2.37;;
16954;SDS011;8594;52.052;8.354;2023-03-11T06:39:29;10.20;;;3.07;;
16954;SDS011;8594;52.052;8.354;2023-03-11T06:41:57;11.00;;;2.93;;
16954;SDS011;8594;52.052;8.354;2023-03-11T06:44:24;10.00;;;2.67;;
16954;SDS011;8594;52.052;8.354;2023-03-11T06:46:51;7.13;;;2.67;;
16954;SDS011;8594;52.052;8.354;2023-03-11T06:49:18;7.27;;;2.60;;
16954;SDS011;8594;52.052;8.354;2023-03-11T06:51:44;11.10;;;3.17;;
16954;SDS011;8594;52.052;8.354;2023-03-11T06:54:11;6.63;;;2.40;;
16954;SDS011;8594;52.052;8.354;2023-03-11T06:56:38;7.87;;;2.60;;
16954;SDS011;8594;52.052;8.354;2023-03-11T06:59:06;9.63;;;2.70;;
16954;SDS011;8594;52.052;8.354;2023-03-11T07:01:33;10.20;;;2.80;;
16954;SDS011;8594;52.052;8.354;2023-03-11T07:04:00;7.80;;;2.50;;
16954;SDS011;8594;52.052;8.354;2023-03-11T07:06:27;4.33;;;2.40;;
16954;SDS011;8594;52.052;8.354;2023-03-11T07:08:54;8.90;;;3.10;;
16954;SDS011;8594;52.052;8.354;2023-03-11T07:11:21;7.70;;;2.57;;
16954;SDS011;8594;52.052;8.354;2023-03-11T07:13:50;8.23;;;3.03;;
16954;SDS011;8594;52.052;8.354;2023-03-11T07:16:20;7.00;;;2.70;;
16954;SDS011;8594;52.052;8.354;2023-03-11T07:18:50;6.90;;;2.60;;
16954;SDS011;8594;52.052;8.354;2023-03-11T07:21:20;3.47;;;2.37;;
16954;SDS011;8594;52.052;8.354;2023-03-11T07:23:51;5.47;;;2.27;;
16954;SDS011;8594;52.052;8.354;2023-03-11T07:26:19;6.90;;;3.20;;
16954;SDS011;8594;52.052;8.354;2023-03-11T07:28:47;8.43;;;2.83;;
16954;SDS011;8594;52.052;8.354;2023-03-11T07:31:15;6.73;;;2.83;;
16954;SDS011;8594;52.052;8.354;2023-03-11T07:33:46;7.60;;;2.53;;
16954;SDS011;8594;52.052;8.354;2023-03-11T07:36:13;7.07;;;2.90;;
16954;SDS011;8594;52.052;8.354;2023-03-11T07:38:42;7.03;;;2.53;;
16954;SDS011;8594;52.052;8.354;2023-03-11T07:41:11;7.57;;;2.60;;
16954;SDS011;8594;52.052;8.354;2023-03-11T07:43:40;5.73;;;2.50;;
16954;SDS011;8594;52.052;8.354;2023-03-11T07:46:09;10.13;;;2.83;;
16954;SDS011;8594;52.052;8.354;2023-03-11T07:48:40;5.67;;;3.00;;
16954;SDS011;8594;52.052;8.354;2023-03-11T07:51:10;6.57;;;3.23;;
16954;SDS011;8594;52.052;8.354;2023-03-11T07:53:39;7.80;;;2.67;;
16954;SDS011;8594;52.052;8.354;2023-03-11T07:56:06;11.00;;;5.20;;
16954;SDS011;8594;52.052;8.354;2023-03-11T07:58:36;10.57;;;3.90;;
16954;SDS011;8594;52.052;8.354;2023-03-11T08:01:03;5.90;;;3.40;;
16954;SDS011;8594;52.052;8.354;2023-03-11T08:03:33;10.77;;;4.20;;
16954;SDS011;8594;52.052;8.354;2023-03-11T08:06:00;13.33;;;4.30;;
16954;SDS011;8594;52.052;8.354;2023-03-11T08:08:29;6.33;;;3.07;;
16954;SDS011;8594;52.052;8.354;2023-03-11T08:10:56;8.17;;;3.70;;
16954;SDS011;8594;52.052;8.354;2023-03-11T08:13:23;8.50;;;3.43;;
16954;SDS011;8594;52.052;8.354;2023-03-11T08:15:50;7.73;;;3.00;;
16954;SDS011;8594;52.052;8.354;2023-03-11T08:18:17;8.00;;;2.87;;
16954;SDS011;8594;52.052;8.354;2023-03-11T08:20:43;7.43;;;2.63;;
16954;SDS011;8594;52.052;8.354;2023-03-11T08:23:10;7.33;;;2.50;;
16954;SDS011;8594;52.052;8.354;2023-03-11T08:25:39;11.40;;;2.40;;
16954;SDS011;8594;52.052;8.354;2023-03-11T08:28:07;6.33;;;2.27;;
16954;SDS011;8594;52.052;8.354;2023-03-11T08:30:34;5.03;;;2.20;;
16954;SDS011;8594;52.052;8.354;2023-03-11T08:33:01;7.23;;;2.30;;
16954;SDS011;8594;52.052;8.354;2023-03-11T08:35:29;6.80;;;2.20;;
16954;SDS011;8594;52.052;8.354;2023-03-11T08:37:56;7.27;;;2.40;;
16954;SDS011;8594;52.052;8.354;2023-03-11T08:40:23;5.93;;;1.93;;
16954;SDS011;8594;52.052;8.354;2023-03-11T08:42:52;4.70;;;1.83;;
16954;SDS011;8594;52.052;8.354;2023-03-11T08:45:20;4.50;;;2.00;;
16954;SDS011;8594;52.052;8.354;2023-03-11T08:47:48;9.03;;;2.50;;
16954;SDS011;8594;52.052;8.354;2023-03-11T08:50:15;7.17;;;2.20;;
16954;SDS011;8594;52.052;8.354;2023-03-11T08:52:45;5.77;;;2.07;;
16954;SDS011;8594;52.052;8.354;2023-03-11T08:55:12;4.33;;;2.47;;
16954;SDS011;8594;52.052;8.354;2023-03-11T08:57:42;6.10;;;1.93;;
16954;SDS011;8594;52.052;8.354;2023-03-11T09:00:12;6.70;;;2.73;;
16954;SDS011;8594;52.052;8.354;2023-03-11T09:02:39;6.57;;;2.07;;
16954;SDS011;8594;52.052;8.354;2023-03-11T09:05:07;4.87;;;1.90;;
16954;SDS011;8594;52.052;8.354;2023-03-11T09:07:35;4.70;;;1.97;;
16954;SDS011;8594;52.052;8.354;2023-03-11T09:10:02;6.60;;;1.93;;
16954;SDS011;8594;52.052;8.354;2023-03-11T09:12:29;4.33;;;2.00;;
16954;SDS011;8594;52.052;8.354;2023-03-11T09:14:56;8.47;;;2.20;;
16954;SDS011;8594;52.052;8.354;2023-03-11T09:17:25;11.47;;;2.57;;
16954;SDS011;8594;52.052;8.354;2023-03-11T09:19:52;6.90;;;2.03;;
16954;SDS011;8594;52.052;8.354;2023-03-11T09:22:19;7.63;;;2.17;;
16954;SDS011;8594;52.052;8.354;2023-03-11T09:24:46;10.00;;;2.00;;
16954;SDS011;8594;52.052;8.354;2023-03-11T09:27:14;6.70;;;2.27;;
16954;SDS011;8594;52.052;8.354;2023-03-11T09:29:45;4.73;;;2.10;;
16954;SDS011;8594;52.052;8.354;2023-03-11T09:32:19;7.17;;;2.27;;
16954;SDS011;8594;52.052;8.354;2023-03-11T09:34:51;6.67;;;2.37;;
16954;SDS011;8594;52.052;8.354;2023-03-11T09:37:25;6.17;;;2.43;;
16954;SDS011;8594;52.052;8.354;2023-03-11T09:40:18;6.97;;;2.30;;
16954;SDS011;8594;52.052;8.354;2023-03-11T09:42:49;5.57;;;1.87;;
16954;SDS011;8594;52.052;8.354;2023-03-11T09:45:32;8.77;;;1.90;;
16954;SDS011;8594;52.052;8.354;2023-03-11T09:48:09;7.60;;;1.80;;
16954;SDS011;8594;52.052;8.354;2023-03-11T09:50:51;7.27;;;2.43;;
16954;SDS011;8594;52.052;8.354;2023-03-11T09:53:25;3.97;;;1.97;;
16954;SDS011;8594;52.052;8.354;2023-03-11T09:56:03;5.70;;;1.63;;
16954;SDS011;8594;52.052;8.354;2023-03-11T09:58:35;8.00;;;1.80;;
16954;SDS011;8594;52.052;8.354;2023-03-11T10:01:09;6.07;;;2.30;;
16954;SDS011;8594;52.052;8.354;2023-03-11T10:03:43;5.80;;;2.20;;
16954;SDS011;8594;52.052;8.354;2023-03-11T10:06:14;7.03;;;2.00;;
16954;SDS011;8594;52.052;8.354;2023-03-11T10:08:45;7.47;;;1.93;;
16954;SDS011;8594;52.052;8.354;2023-03-11T10:11:33;7.43;;;2.13;;
16954;SDS011;8594;52.052;8.354;2023-03-11T10:14:18;5.67;;;1.80;;
16954;SDS011;8594;52.052;8.354;2023-03-11T10:17:11;8.83;;;2.10;;
16954;SDS011;8594;52.052;8.354;2023-03-11T10:20:02;7.00;;;2.37;;
16954;SDS011;8594;52.052;8.354;2023-03-11T10:22:39;5.73;;;1.90;;
16954;SDS011;8594;52.052;8.354;2023-03-11T10:25:13;12.10;;;2.47;;
16954;SDS011;8594;52.052;8.354;2023-03-11T10:27:47;7.23;;;1.90;;
16954;SDS011;8594;52.052;8.354;2023-03-11T10:30:22;7.20;;;2.30;;
16954;SDS011;8594;52.052;8.354;2023-03-11T10:32:55;9.37;;;2.13;;
16954;SDS011;8594;52.052;8.354;2023-03-11T10:35:28;6.50;;;1.93;;
16954;SDS011;8594;52.052;8.354;2023-03-11T10:38:06;7.60;;;1.93;;
16954;SDS011;8594;52.052;8.354;2023-03-11T10:40:41;8.27;;;2.00;;
16954;SDS011;8594;52.052;8.354;2023-03-11T10:43:10;8.13;;;2.23;;
16954;SDS011;8594;52.052;8.354;2023-03-11T10:45:41;10.43;;;1.80;;
16954;SDS011;8594;52.052;8.354;2023-03-11T10:48:13;9.47;;;2.10;;
16954;SDS011;8594;52.052;8.354;2023-03-11T10:50:45;6.20;;;2.17;;
16954;SDS011;8594;52.052;8.354;2023-03-11T10:53:19;9.37;;;2.10;;
16954;SDS011;8594;52.052;8.354;2023-03-11T10:55:47;3.77;;;1.63;;
16954;SDS011;8594;52.052;8.354;2023-03-11T10:58:17;6.73;;;1.73;;
16954;SDS011;8594;52.052;8.354;2023-03-11T11:00:58;6.83;;;2.00;;
16954;SDS011;8594;52.052;8.354;2023-03-11T11:03:27;3.13;;;1.50;;
16954;SDS011;8594;52.052;8.354;2023-03-11T11:05:56;8.80;;;2.07;;
16954;SDS011;8594;52.052;8.354;2023-03-11T11:08:28;12.87;;;3.00;;
16954;SDS011;8594;52.052;8.354;2023-03-11T11:10:56;7.10;;;1.90;;
16954;SDS011;8594;52.052;8.354;2023-03-11T11:13:26;5.50;;;1.60;;
16954;SDS011;8594;52.052;8.354;2023-03-11T11:15:56;6.87;;;1.90;;
16954;SDS011;8594;52.052;8.354;2023-03-11T11:18:26;7.00;;;1.97;;
16954;SDS011;8594;52.052;8.354;2023-03-11T11:20:59;6.60;;;1.80;;
16954;SDS011;8594;52.052;8.354;2023-03-11T11:23:36;8.77;;;2.83;;
16954;SDS011;8594;52.052;8.354;2023-03-11T11:26:13;6.70;;;1.67;;
16954;SDS011;8594;52.052;8.354;2023-03-11T11:28:45;6.30;;;1.90;;
16954;SDS011;8594;52.052;8.354;2023-03-11T11:31:32;10.80;;;2.03;;
16954;SDS011;8594;52.052;8.354;2023-03-11T11:33:59;9.03;;;2.10;;
16954;SDS011;8594;52.052;8.354;2023-03-11T11:36:27;8.10;;;1.93;;
16954;SDS011;8594;52.052;8.354;2023-03-11T11:38:59;8.07;;;2.00;;
16954;SDS011;8594;52.052;8.354;2023-03-11T11:41:29;5.57;;;1.70;;
16954;SDS011;8594;52.052;8.354;2023-03-11T11:44:02;8.23;;;1.93;;
16954;SDS011;8594;52.052;8.354;2023-03-11T11:46:33;6.77;;;1.93;;
16954;SDS011;8594;52.052;8.354;2023-03-11T11:49:07;11.77;;;1.90;;
16954;SDS011;8594;52.052;8.354;2023-03-11T11:51:45;7.33;;;1.80;;
16954;SDS011;8594;52.052;8.354;2023-03-11T11:54:22;8.47;;;2.27;;
16954;SDS011;8594;52.052;8.354;2023-03-11T11:56:55;6.90;;;1.97;;
16954;SDS011;8594;52.052;8.354;2023-03-11T11:59:24;23.27;;;3.87;;
16954;SDS011;8594;52.052;8.354;2023-03-11T12:01:56;6.83;;;1.80;;
16954;SDS011;8594;52.052;8.354;2023-03-11T12:04:36;13.53;;;2.33;;
16954;SDS011;8594;52.052;8.354;2023-03-11T12:07:17;5.37;;;1.73;;
16954;SDS011;8594;52.052;8.354;2023-03-11T12:10:13;13.23;;;3.60;;
16954;SDS011;8594;52.052;8.354;2023-03-11T12:12:59;15.77;;;2.43;;
16954;SDS011;8594;52.052;8.354;2023-03-11T12:15:59;10.93;;;1.97;;
16954;SDS011;8594;52.052;8.354;2023-03-11T12:18:36;4.43;;;1.77;;
16954;SDS011;8594;52.052;8.354;2023-03-11T12:21:12;7.10;;;1.63;;
16954;SDS011;8594;52.052;8.354;2023-03-11T12:24:07;7.27;;;1.80;;
16954;SDS011;8594;52.052;8.354;2023-03-11T12:26:59;8.97;;;1.77;;
16954;SDS011;8594;52.052;8.354;2023-03-11T12:29:30;6.57;;;1.80;;
16954;SDS011;8594;52.052;8.354;2023-03-11T12:32:01;7.13;;;2.20;;
16954;SDS011;8594;52.052;8.354;2023-03-11T12:34:29;6.93;;;1.70;;
16954;SDS011;8594;52.052;8.354;2023-03-11T12:37:00;4.80;;;1.80;;
16954;SDS011;8594;52.052;8.354;2023-03-11T12:39:38;17.73;;;2.27;;
16954;SDS011;8594;52.052;8.354;2023-03-11T12:42:16;10.73;;;2.13;;
16954;SDS011;8594;52.052;8.354;2023-03-11T12:44:45;16.03;;;2.67;;
16954;SDS011;8594;52.052;8.354;2023-03-11T12:47:19;6.03;;;1.83;;
16954;SDS011;8594;52.052;8.354;2023-03-11T12:49:53;8.80;;;2.00;;
16954;SDS011;8594;52.052;8.354;2023-03-11T12:52:22;10.07;;;2.00;;
16954;SDS011;8594;52.052;8.354;2023-03-11T12:58:14;7.90;;;1.67;;
16954;SDS011;8594;52.052;8.354;2023-03-11T13:01:11;4.63;;;1.57;;
16954;SDS011;8594;52.052;8.354;2023-03-11T13:04:20;7.03;;;1.77;;
16954;SDS011;8594;52.052;8.354;2023-03-11T13:10:32;3.80;;;1.50;;
16954;SDS011;8594;52.052;8.354;2023-03-11T13:16:34;7.53;;;1.60;;
16954;SDS011;8594;52.052;8.354;2023-03-11T13:22:01;17.83;;;2.50;;
16954;SDS011;8594;52.052;8.354;2023-03-11T13:24:40;10.20;;;1.40;;
16954;SDS011;8594;52.052;8.354;2023-03-11T13:27:22;8.13;;;1.30;;
16954;SDS011;8594;52.052;8.354;2023-03-11T13:30:06;6.50;;;1.67;;
16954;SDS011;8594;52.052;8.354;2023-03-11T13:32:50;6.07;;;1.30;;
16954;SDS011;8594;52.052;8.354;2023-03-11T13:35:49;8.73;;;1.93;;
16954;SDS011;8594;52.052;8.354;2023-03-11T13:41:48;4.37;;;1.63;;
16954;SDS011;8594;52.052;8.354;2023-03-11T13:44:19;5.67;;;1.50;;
16954;SDS011;8594;52.052;8.354;2023-03-11T13:46:55;6.10;;;1.77;;
16954;SDS011;8594;52.052;8.354;2023-03-11T13:49:31;10.10;;;1.50;;
16954;SDS011;8594;52.052;8.354;2023-03-11T13:52:06;2.20;;;1.30;;
16954;SDS011;8594;52.052;8.354;2023-03-11T13:54:40;3.87;;;1.57;;
16954;SDS011;8594;52.052;8.354;2023-03-11T13:57:22;5.33;;;1.40;;
16954;SDS011;8594;52.052;8.354;2023-03-11T13:59:54;7.27;;;1.63;;
16954;SDS011;8594;52.052;8.354;2023-03-11T14:02:24;7.67;;;1.60;;
16954;SDS011;8594;52.052;8.354;2023-03-11T14:04:53;7.47;;;1.40;;
16954;SDS011;8594;52.052;8.354;2023-03-11T14:07:24;5.47;;;1.90;;
16954;SDS011;8594;52.052;8.354;2023-03-11T14:12:50;5.27;;;1.40;;
16954;SDS011;8594;52.052;8.354;2023-03-11T14:15:30;14.40;;;2.03;;
16954;SDS011;8594;52.052;8.354;2023-03-11T14:18:25;5.80;;;1.50;;
16954;SDS011;8594;52.052;8.354;2023-03-11T14:21:02;5.43;;;1.30;;
16954;SDS011;8594;52.052;8.354;2023-03-11T14:23:33;7.77;;;2.03;;
16954;SDS011;8594;52.052;8.354;2023-03-11T14:26:13;10.53;;;2.23;;
16954;SDS011;8594;52.052;8.354;2023-03-11T14:28:46;6.07;;;1.80;;
16954;SDS011;8594;52.052;8.354;2023-03-11T14:31:23;8.23;;;1.50;;
16954;SDS011;8594;52.052;8.354;2023-03-11T14:33:58;10.33;;;2.10;;
16954;SDS011;8594;52.052;8.354;2023-03-11T14:36:38;10.00;;;1.20;;
16954;SDS011;8594;52.052;8.354;2023-03-11T14:39:20;8.97;;;2.13;;
16954;SDS011;8594;52.052;8.354;2023-03-11T14:41:54;21.83;;;2.10;;
16954;SDS011;8594;52.052;8.354;2023-03-11T14:44:26;4.50;;;1.57;;
16954;SDS011;8594;52.052;8.354;2023-03-11T14:47:01;5.63;;;1.80;;
16954;SDS011;8594;52.052;8.354;2023-03-11T14:49:37;6.33;;;1.77;;
16954;SDS011;8594;52.052;8.354;2023-03-11T14:52:07;14.80;;;1.93;;
16954;SDS011;8594;52.052;8.354;2023-03-11T14:54:42;5.20;;;1.37;;
16954;SDS011;8594;52.052;8.354;2023-03-11T14:57:15;4.20;;;1.30;;
16954;SDS011;8594;52.052;8.354;2023-03-11T14:59:49;16.03;;;1.67;;
16954;SDS011;8594;52.052;8.354;2023-03-11T15:02:27;10.93;;;2.03;;
16954;SDS011;8594;52.052;8.354;2023-03-11T15:05:08;4.10;;;1.70;;
16954;SDS011;8594;52.052;8.354;2023-03-11T15:07:44;4.43;;;1.30;;
16954;SDS011;8594;52.052;8.354;2023-03-11T15:10:15;8.70;;;2.63;;
16954;SDS011;8594;52.052;8.354;2023-03-11T15:12:42;4.27;;;1.37;;
16954;SDS011;8594;52.052;8.354;2023-03-11T15:15:20;9.50;;;1.60;;
16954;SDS011;8594;52.052;8.354;2023-03-11T15:17:53;4.63;;;1.43;;
16954;SDS011;8594;52.052;8.354;2023-03-11T15:20:26;6.63;;;1.50;;
16954;SDS011;8594;52.052;8.354;2023-03-11T15:22:56;3.10;;;1.23;;
16954;SDS011;8594;52.052;8.354;2023-03-11T15:25:29;11.93;;;1.83;;
16954;SDS011;8594;52.052;8.354;2023-03-11T15:28:18;9.27;;;1.93;;
16954;SDS011;8594;52.052;8.354;2023-03-11T15:30:48;4.80;;;1.50;;
16954;SDS011;8594;52.052;8.354;2023-03-11T15:33:21;5.47;;;1.23;;
16954;SDS011;8594;52.052;8.354;2023-03-11T15:35:59;4.83;;;1.33;;
16954;SDS011;8594;52.052;8.354;2023-03-11T15:38:26;4.17;;;1.30;;
16954;SDS011;8594;52.052;8.354;2023-03-11T15:40:53;16.30;;;2.53;;
16954;SDS011;8594;52.052;8.354;2023-03-11T15:43:23;3.03;;;1.20;;
16954;SDS011;8594;52.052;8.354;2023-03-11T15:45:53;2.03;;;1.20;;